John Day, Oregon
Current Conditions -  °F | °C
As of 8:15 PM on Thursday 27 Nov 2014 (Local Time) from KGCD Reporting Station
Light Rain Light Rain  
Wind Chill: 45°   Ceiling: 4700
Heat Index: 48°   Visibility: 10mi
Dew Point: 40°   Wind: 7mph
Humidity: 74%   Direction: 230°SW
Pressure: 30.01"   Gusts: NA
Location:  44.42°N, 118.95°W
Report Text: KGCD 280415Z AUTO 23006KT 10SM -RA SCT035 BKN047 OVC055 09/05 A3001 RMK AO2 T00900045
Loading
Personal Weather Stations






























Interactive Weather Map New forecast layout! Learn more

10-Day Weather Forecast

Advertisements
Track Severe Weather on mobile